Time;durP1;ratioP1;P1;durP2;ratioP2;P2;SDS_P1;SDS_P2;PMS_P1;PMS_P2;Temp;Humidity;BMP_temperature;BMP_pressure;BME280_temperature;BME280_humidity;BME280_pressure;Samples;Min_cycle;Max_cycle;Signal;HPM_P1;HPM_P2
2022/03/18 00:01:40;;;;;;;7.22;3.33;;;;;;;;;;5087647;28;20384;-48
2022/03/18 00:04:06;;;;;;;9.10;2.80;;;;;;;;;;5091374;28;20027;-50
2022/03/18 00:06:32;;;;;;;7.80;3.45;;;;;;;;;;5082961;28;20031;-49
2022/03/18 00:08:58;;;;;;;12.07;3.30;;;;;;;;;;5088024;28;20016;-48
2022/03/18 00:11:24;;;;;;;4.80;3.00;;;;;;;;;;5089282;28;20028;-50
2022/03/18 00:13:50;;;;;;;10.23;3.38;;;;;;;;;;5091704;28;20110;-50
2022/03/18 00:16:16;;;;;;;8.70;3.65;;;;;;;;;;5088452;28;20044;-49
2022/03/18 00:18:42;;;;;;;6.53;3.08;;;;;;;;;;5086167;28;20020;-50
2022/03/18 00:21:08;;;;;;;7.40;3.35;;;;;;;;;;5079330;28;20016;-49
2022/03/18 00:23:34;;;;;;;6.70;3.30;;;;;;;;;;5073818;28;20477;-48
2022/03/18 00:26:00;;;;;;;6.65;3.50;;;;;;;;;;5074333;28;20032;-51
2022/03/18 00:28:27;;;;;;;5.95;3.13;;;;;;;;;;5081523;28;20032;-48
2022/03/18 00:30:53;;;;;;;8.50;3.35;;;;;;;;;;5084159;28;20020;-48
2022/03/18 00:33:20;;;;;;;9.52;3.72;;;;;;;;;;5090796;28;20527;-50
2022/03/18 00:35:46;;;;;;;5.43;3.20;;;;;;;;;;5081937;28;20044;-50
2022/03/18 00:38:13;;;;;;;6.15;2.88;;;;;;;;;;5082285;28;20029;-52
2022/03/18 00:40:39;;;;;;;7.32;3.25;;;;;;;;;;5090037;28;20043;-51
2022/03/18 00:43:05;;;;;;;8.65;3.40;;;;;;;;;;5094907;28;20460;-48
2022/03/18 00:45:32;;;;;;;7.43;4.00;;;;;;;;;;5085359;28;20468;-48
2022/03/18 00:53:27;;;;;;;12.77;3.50;;;;;;;;;;5084807;28;20094;-51
2022/03/18 00:55:53;;;;;;;12.02;3.33;;;;;;;;;;5092656;28;20059;-48
2022/03/18 00:58:19;;;;;;;9.43;3.10;;;;;;;;;;5088682;28;20027;-47
2022/03/18 01:00:45;;;;;;;7.85;3.10;;;;;;;;;;5088210;28;20028;-49
2022/03/18 01:03:11;;;;;;;7.93;2.97;;;;;;;;;;5088933;28;20036;-47
2022/03/18 01:05:37;;;;;;;7.65;2.88;;;;;;;;;;5094805;28;20429;-48
2022/03/18 01:08:03;;;;;;;9.25;3.20;;;;;;;;;;5090905;28;20028;-47
2022/03/18 01:10:29;;;;;;;10.68;3.28;;;;;;;;;;5084430;28;20044;-49
2022/03/18 01:12:55;;;;;;;6.65;3.25;;;;;;;;;;5085303;28;20031;-47
2022/03/18 01:15:21;;;;;;;9.95;3.28;;;;;;;;;;5081154;28;20028;-48
2022/03/18 01:17:47;;;;;;;8.30;3.60;;;;;;;;;;5086868;28;20031;-48
2022/03/18 01:20:13;;;;;;;9.18;3.17;;;;;;;;;;5086398;28;20024;-47
2022/03/18 01:22:39;;;;;;;11.30;2.83;;;;;;;;;;5080631;28;20476;-48
2022/03/18 01:25:05;;;;;;;5.90;3.00;;;;;;;;;;5077134;28;20024;-49
2022/03/18 01:27:31;;;;;;;10.98;2.80;;;;;;;;;;5081334;28;20035;-48
2022/03/18 01:29:58;;;;;;;8.07;3.13;;;;;;;;;;5088525;28;20098;-48
2022/03/18 01:32:23;;;;;;;6.38;2.80;;;;;;;;;;5080556;28;20024;-48
2022/03/18 01:34:49;;;;;;;7.00;2.70;;;;;;;;;;5082188;28;20090;-47
2022/03/18 01:37:16;;;;;;;7.38;2.80;;;;;;;;;;5083735;28;20025;-48
2022/03/18 01:39:42;;;;;;;7.32;2.53;;;;;;;;;;5085228;28;20098;-48
2022/03/18 01:42:08;;;;;;;4.65;2.50;;;;;;;;;;5081654;28;20020;-47
2022/03/18 01:44:41;;;;;;;6.97;2.50;;;;;;;;;;5094252;28;20112;-47
2022/03/18 01:47:07;;;;;;;5.53;2.47;;;;;;;;;;5080943;28;20479;-48
2022/03/18 01:49:33;;;;;;;8.90;2.78;;;;;;;;;;5094015;28;20056;-49
2022/03/18 01:51:59;;;;;;;9.35;2.80;;;;;;;;;;5089124;28;20047;-50
2022/03/18 01:54:44;;;;;;;8.70;2.60;;;;;;;;;;5093798;28;20034;-51
2022/03/18 01:57:10;;;;;;;4.95;2.10;;;;;;;;;;5087054;28;20469;-47
2022/03/18 01:59:36;;;;;;;4.35;2.95;;;;;;;;;;5091814;28;20103;-52
2022/03/18 02:02:02;;;;;;;7.03;2.50;;;;;;;;;;5083922;28;20016;-49
2022/03/18 02:04:28;;;;;;;8.70;2.70;;;;;;;;;;5074165;28;20443;-48
2022/03/18 02:06:55;;;;;;;10.43;2.92;;;;;;;;;;5081651;28;20130;-50
2022/03/18 02:09:21;;;;;;;7.05;2.20;;;;;;;;;;5078119;28;20036;-49
2022/03/18 02:11:47;;;;;;;3.55;2.08;;;;;;;;;;5084979;28;20042;-48
2022/03/18 02:14:13;;;;;;;6.50;2.20;;;;;;;;;;5093707;28;20360;-49
2022/03/18 02:16:40;;;;;;;7.68;2.50;;;;;;;;;;5090416;28;20032;-48
2022/03/18 02:19:09;;;;;;;5.65;1.80;;;;;;;;;;5093486;28;20089;-48
2022/03/18 02:21:36;;;;;;;7.18;2.30;;;;;;;;;;5081605;28;20028;-48
2022/03/18 02:24:02;;;;;;;9.85;2.42;;;;;;;;;;5085240;28;20032;-48
2022/03/18 02:26:28;;;;;;;4.88;1.98;;;;;;;;;;5089645;28;20058;-49
2022/03/18 02:28:54;;;;;;;5.88;2.15;;;;;;;;;;5085876;28;20107;-53
2022/03/18 02:31:20;;;;;;;8.35;1.98;;;;;;;;;;5083523;28;20036;-53
2022/03/18 02:33:46;;;;;;;9.63;2.75;;;;;;;;;;5084490;28;20024;-49
2022/03/18 02:36:12;;;;;;;4.20;2.30;;;;;;;;;;5091015;28;20452;-53
2022/03/18 02:38:38;;;;;;;6.35;1.88;;;;;;;;;;5080446;28;20067;-52
2022/03/18 02:41:04;;;;;;;6.05;1.85;;;;;;;;;;5082672;28;20077;-52
2022/03/18 02:43:30;;;;;;;3.97;1.83;;;;;;;;;;5087127;28;20028;-50
2022/03/18 02:45:56;;;;;;;8.90;2.58;;;;;;;;;;5091877;28;20030;-49
2022/03/18 02:48:22;;;;;;;6.40;2.17;;;;;;;;;;5093022;28;20074;-48
2022/03/18 02:50:48;;;;;;;4.50;2.33;;;;;;;;;;5086909;28;20032;-48
2022/03/18 02:53:14;;;;;;;3.78;2.10;;;;;;;;;;5081825;28;20044;-48
2022/03/18 02:55:40;;;;;;;6.55;1.92;;;;;;;;;;5085784;28;20502;-48
2022/03/18 02:58:06;;;;;;;6.20;2.20;;;;;;;;;;5084281;28;20468;-48
2022/03/18 03:00:32;;;;;;;5.10;1.80;;;;;;;;;;5081327;28;20035;-48
2022/03/18 03:02:58;;;;;;;7.47;1.95;;;;;;;;;;5090775;28;20032;-50
2022/03/18 03:08:09;;;;;;;8.27;2.50;;;;;;;;;;5078502;28;20051;-51
2022/03/18 03:10:39;;;;;;;6.80;1.73;;;;;;;;;;5085921;28;20024;-52
2022/03/18 03:13:08;;;;;;;7.93;2.08;;;;;;;;;;5082867;28;20483;-51
2022/03/18 03:15:35;;;;;;;4.82;1.85;;;;;;;;;;5088519;28;20029;-54
2022/03/18 03:18:01;;;;;;;8.35;2.60;;;;;;;;;;5089987;28;20422;-48
2022/03/18 03:20:27;;;;;;;6.68;2.35;;;;;;;;;;5090319;28;20020;-52
2022/03/18 03:22:53;;;;;;;5.68;1.77;;;;;;;;;;5090435;28;20496;-51
2022/03/18 03:25:19;;;;;;;6.43;1.80;;;;;;;;;;5072957;28;20036;-48
2022/03/18 03:27:45;;;;;;;10.10;1.92;;;;;;;;;;5081025;28;20028;-50
2022/03/18 03:30:11;;;;;;;8.30;1.70;;;;;;;;;;5090556;28;20103;-49
2022/03/18 03:32:38;;;;;;;10.98;2.03;;;;;;;;;;5082043;28;20033;-52
2022/03/18 03:35:05;;;;;;;7.10;2.13;;;;;;;;;;5084561;28;20542;-48
2022/03/18 03:37:30;;;;;;;8.82;2.50;;;;;;;;;;5088903;28;20111;-48
2022/03/18 03:39:57;;;;;;;6.78;1.92;;;;;;;;;;5082773;28;20024;-48
2022/03/18 03:42:23;;;;;;;14.23;2.25;;;;;;;;;;5089152;28;20157;-49
2022/03/18 03:44:49;;;;;;;6.45;1.90;;;;;;;;;;5076266;28;20456;-54
2022/03/18 03:47:15;;;;;;;4.00;1.45;;;;;;;;;;5088395;28;20032;-48
2022/03/18 03:49:41;;;;;;;5.05;1.40;;;;;;;;;;5092317;28;20118;-51
2022/03/18 03:52:10;;;;;;;6.95;1.70;;;;;;;;;;5083887;28;20088;-51
2022/03/18 03:54:37;;;;;;;4.32;1.50;;;;;;;;;;5089946;28;20058;-50
2022/03/18 03:57:03;;;;;;;5.95;1.73;;;;;;;;;;5091557;28;20495;-52
2022/03/18 03:59:29;;;;;;;5.10;1.63;;;;;;;;;;5083817;28;20027;-49
2022/03/18 04:01:55;;;;;;;7.47;1.48;;;;;;;;;;5078180;28;20016;-49
2022/03/18 04:04:21;;;;;;;4.60;1.52;;;;;;;;;;5092278;28;20046;-49
2022/03/18 04:06:47;;;;;;;7.10;2.05;;;;;;;;;;5089935;28;20435;-48
2022/03/18 04:09:15;;;;;;;4.88;1.85;;;;;;;;;;5091642;28;20040;-48
2022/03/18 04:11:41;;;;;;;6.65;1.63;;;;;;;;;;5091501;28;20025;-48
2022/03/18 04:14:07;;;;;;;7.78;1.67;;;;;;;;;;5091720;28;20036;-50
2022/03/18 04:16:33;;;;;;;4.88;1.23;;;;;;;;;;5083546;28;20434;-49
2022/03/18 04:18:59;;;;;;;6.57;1.48;;;;;;;;;;5088718;28;20024;-54
2022/03/18 04:21:25;;;;;;;8.15;1.73;;;;;;;;;;5087836;28;20396;-53
2022/03/18 04:23:51;;;;;;;4.53;1.45;;;;;;;;;;5086659;28;20036;-52
2022/03/18 04:26:17;;;;;;;6.57;1.50;;;;;;;;;;5081044;28;20063;-51
2022/03/18 04:28:44;;;;;;;4.55;1.30;;;;;;;;;;5088146;28;20036;-48
2022/03/18 04:31:10;;;;;;;6.78;1.40;;;;;;;;;;5085019;28;20441;-50
2022/03/18 04:33:36;;;;;;;6.68;2.00;;;;;;;;;;5088032;28;20051;-49
2022/03/18 04:36:02;;;;;;;9.85;2.05;;;;;;;;;;5093550;28;20036;-48
2022/03/18 04:38:28;;;;;;;5.00;1.02;;;;;;;;;;5093255;28;20047;-49
2022/03/18 04:40:54;;;;;;;6.45;1.35;;;;;;;;;;5086796;28;20126;-48
2022/03/18 04:43:20;;;;;;;8.35;2.50;;;;;;;;;;5090616;28;20074;-48
2022/03/18 04:45:46;;;;;;;5.30;2.03;;;;;;;;;;5082224;28;20021;-48
2022/03/18 04:48:12;;;;;;;4.47;1.73;;;;;;;;;;5081182;28;20028;-48
2022/03/18 04:50:38;;;;;;;4.05;1.45;;;;;;;;;;5092114;28;20050;-48
2022/03/18 04:53:04;;;;;;;6.70;1.38;;;;;;;;;;5083450;28;20119;-53
2022/03/18 04:55:30;;;;;;;5.40;1.75;;;;;;;;;;5089883;28;20032;-51
2022/03/18 04:57:56;;;;;;;5.88;1.60;;;;;;;;;;5079174;28;20043;-52
2022/03/18 05:00:24;;;;;;;7.90;1.77;;;;;;;;;;5089917;28;20372;-54
2022/03/18 05:02:51;;;;;;;4.20;1.45;;;;;;;;;;5090230;28;20053;-51
2022/03/18 05:05:19;;;;;;;3.25;1.58;;;;;;;;;;5091626;28;20024;-52
2022/03/18 05:07:49;;;;;;;8.25;1.67;;;;;;;;;;5087295;28;20046;-49
2022/03/18 05:10:15;;;;;;;5.53;1.55;;;;;;;;;;5091449;28;20028;-50
2022/03/18 05:12:41;;;;;;;10.43;1.58;;;;;;;;;;5086939;28;20035;-48
2022/03/18 05:15:08;;;;;;;7.00;2.47;;;;;;;;;;5088965;28;20035;-48
2022/03/18 05:17:35;;;;;;;4.97;1.17;;;;;;;;;;5085057;28;20511;-48
2022/03/18 05:20:01;;;;;;;6.00;1.50;;;;;;;;;;5087511;28;20411;-49
2022/03/18 05:22:27;;;;;;;5.60;1.20;;;;;;;;;;5077033;28;20028;-48
2022/03/18 05:24:54;;;;;;;6.38;1.95;;;;;;;;;;5078112;28;20031;-48
2022/03/18 05:27:20;;;;;;;5.25;1.58;;;;;;;;;;5088062;28;20040;-48
2022/03/18 05:29:46;;;;;;;5.65;1.77;;;;;;;;;;5082808;28;20043;-53
2022/03/18 05:32:12;;;;;;;5.03;1.42;;;;;;;;;;5085553;28;20028;-49
2022/03/18 05:34:38;;;;;;;11.63;1.98;;;;;;;;;;5094845;28;20035;-49
2022/03/18 05:37:07;;;;;;;6.07;1.20;;;;;;;;;;5092305;28;20077;-51
2022/03/18 05:39:34;;;;;;;9.38;2.20;;;;;;;;;;5093315;28;20016;-50
2022/03/18 05:42:00;;;;;;;10.48;2.20;;;;;;;;;;5078160;28;20126;-48
2022/03/18 05:44:26;;;;;;;4.78;1.60;;;;;;;;;;5085394;28;20465;-49
2022/03/18 05:46:52;;;;;;;7.05;1.80;;;;;;;;;;5082133;28;20469;-48
2022/03/18 05:49:18;;;;;;;6.00;1.35;;;;;;;;;;5089287;28;20036;-49
2022/03/18 05:51:45;;;;;;;8.68;1.45;;;;;;;;;;5083231;28;20033;-48
2022/03/18 05:54:11;;;;;;;9.18;1.85;;;;;;;;;;5086898;28;20476;-48
2022/03/18 05:56:53;;;;;;;6.05;1.42;;;;;;;;;;5084985;28;20556;-48
2022/03/18 05:59:26;;;;;;;9.98;2.50;;;;;;;;;;5088358;28;20101;-48
2022/03/18 06:01:53;;;;;;;5.25;1.65;;;;;;;;;;5084234;28;20098;-48
2022/03/18 06:04:19;;;;;;;9.68;1.85;;;;;;;;;;5083368;28;20024;-48
2022/03/18 06:06:47;;;;;;;7.43;1.35;;;;;;;;;;5088752;28;20030;-48
2022/03/18 06:11:58;;;;;;;8.15;1.63;;;;;;;;;;5084120;28;20066;-48
2022/03/18 06:14:28;;;;;;;6.32;2.13;;;;;;;;;;5093009;28;20026;-49
2022/03/18 06:16:55;;;;;;;7.93;1.65;;;;;;;;;;5085272;28;20488;-53
2022/03/18 06:19:22;;;;;;;5.30;1.52;;;;;;;;;;5084555;28;20032;-48
2022/03/18 06:21:48;;;;;;;11.98;1.73;;;;;;;;;;5088448;28;20024;-51
2022/03/18 06:24:14;;;;;;;10.90;1.67;;;;;;;;;;5083637;28;20021;-49
2022/03/18 06:26:40;;;;;;;8.05;1.88;;;;;;;;;;5086754;28;20502;-48
2022/03/18 06:29:07;;;;;;;8.32;1.58;;;;;;;;;;5089913;28;20039;-52
2022/03/18 06:31:33;;;;;;;11.20;1.75;;;;;;;;;;5079674;28;20447;-48
2022/03/18 06:33:59;;;;;;;7.30;1.60;;;;;;;;;;5087165;28;20047;-48
2022/03/18 06:36:26;;;;;;;10.40;2.38;;;;;;;;;;5077539;28;20033;-49
2022/03/18 06:38:52;;;;;;;7.45;2.13;;;;;;;;;;5089167;28;20110;-48
2022/03/18 06:41:19;;;;;;;13.40;2.17;;;;;;;;;;5080294;28;20505;-48
2022/03/18 06:43:45;;;;;;;12.90;2.08;;;;;;;;;;5085074;28;20004;-48
2022/03/18 06:46:11;;;;;;;5.63;2.15;;;;;;;;;;5089853;28;20043;-48
2022/03/18 06:48:37;;;;;;;12.85;2.00;;;;;;;;;;5078902;28;20024;-48
2022/03/18 06:51:03;;;;;;;6.50;1.80;;;;;;;;;;5083226;28;20108;-51
2022/03/18 06:53:29;;;;;;;7.47;2.20;;;;;;;;;;5076534;28;20512;-50
2022/03/18 06:55:55;;;;;;;7.70;2.25;;;;;;;;;;5088831;28;20021;-52
2022/03/18 06:58:21;;;;;;;10.65;2.53;;;;;;;;;;5080668;28;20066;-53
2022/03/18 07:00:47;;;;;;;7.38;2.35;;;;;;;;;;5076661;28;20123;-52
2022/03/18 07:03:13;;;;;;;7.15;2.22;;;;;;;;;;5079547;28;20098;-49
2022/03/18 07:05:40;;;;;;;9.63;2.25;;;;;;;;;;5085058;28;20035;-48
2022/03/18 07:08:06;;;;;;;10.05;2.40;;;;;;;;;;5076733;28;20111;-49
2022/03/18 07:10:32;;;;;;;6.53;2.30;;;;;;;;;;5091139;28;20116;-48
2022/03/18 07:12:58;;;;;;;14.15;2.63;;;;;;;;;;5089311;28;20035;-48
2022/03/18 07:15:24;;;;;;;10.90;2.60;;;;;;;;;;5092491;28;20016;-49
2022/03/18 07:17:58;;;;;;;11.05;2.72;;;;;;;;;;5079049;28;20031;-48
2022/03/18 07:20:28;;;;;;;8.95;2.50;;;;;;;;;;5092491;28;20093;-48
2022/03/18 07:23:01;;;;;;;11.82;2.67;;;;;;;;;;5075144;28;20446;-49
2022/03/18 07:25:27;;;;;;;11.88;3.05;;;;;;;;;;5083016;28;20115;-48
2022/03/18 07:27:53;;;;;;;8.73;2.08;;;;;;;;;;5086805;28;20050;-48
2022/03/18 07:30:19;;;;;;;9.65;3.03;;;;;;;;;;5086636;28;20024;-49
2022/03/18 07:32:45;;;;;;;8.57;2.80;;;;;;;;;;5089194;28;20515;-48
2022/03/18 07:35:11;;;;;;;11.38;2.50;;;;;;;;;;5085113;28;20058;-50
2022/03/18 07:37:37;;;;;;;15.07;2.90;;;;;;;;;;5086070;28;20027;-51
2022/03/18 07:40:05;;;;;;;11.23;3.50;;;;;;;;;;5091714;28;20022;-49
2022/03/18 07:42:44;;;;;;;10.73;2.55;;;;;;;;;;5082639;28;20486;-48
2022/03/18 07:45:16;;;;;;;10.75;2.72;;;;;;;;;;5086420;28;20063;-48
2022/03/18 07:47:42;;;;;;;7.93;2.75;;;;;;;;;;5089470;28;20067;-50
2022/03/18 07:50:09;;;;;;;8.23;2.85;;;;;;;;;;5091165;28;20024;-48
2022/03/18 07:52:35;;;;;;;6.78;2.58;;;;;;;;;;5092147;28;20046;-48
2022/03/18 07:55:01;;;;;;;12.68;3.13;;;;;;;;;;5094148;28;20029;-48
2022/03/18 07:57:28;;;;;;;10.95;2.42;;;;;;;;;;5092146;28;20052;-48
2022/03/18 07:59:54;;;;;;;5.63;2.00;;;;;;;;;;5093107;28;20040;-48
2022/03/18 08:02:19;;;;;;;14.90;2.90;;;;;;;;;;5094780;28;20052;-48
2022/03/18 08:04:47;;;;;;;6.78;2.50;;;;;;;;;;5091321;28;20035;-50
2022/03/18 08:07:13;;;;;;;11.30;3.78;;;;;;;;;;5094081;28;20039;-48
2022/03/18 08:09:39;;;;;;;15.07;2.63;;;;;;;;;;5088873;28;20111;-50
2022/03/18 08:12:05;;;;;;;9.13;2.20;;;;;;;;;;5094485;28;20696;-49
2022/03/18 08:14:31;;;;;;;10.27;2.58;;;;;;;;;;5094655;28;20024;-51
2022/03/18 08:16:57;;;;;;;9.75;2.70;;;;;;;;;;5094815;28;20023;-50
2022/03/18 08:19:24;;;;;;;5.43;1.98;;;;;;;;;;5093105;28;20165;-50
2022/03/18 08:21:50;;;;;;;14.07;1.85;;;;;;;;;;5096542;28;20024;-48
2022/03/18 08:24:16;;;;;;;8.65;2.40;;;;;;;;;;5094948;28;20112;-48
2022/03/18 08:26:42;;;;;;;10.85;2.30;;;;;;;;;;5094074;28;20020;-48
2022/03/18 08:29:08;;;;;;;5.15;1.50;;;;;;;;;;5094870;28;20039;-48
2022/03/18 08:31:34;;;;;;;15.65;2.28;;;;;;;;;;5094619;28;20024;-49
2022/03/18 08:34:00;;;;;;;5.90;2.20;;;;;;;;;;5090697;28;20038;-49
2022/03/18 08:36:27;;;;;;;10.50;2.03;;;;;;;;;;5094666;28;20073;-49
2022/03/18 08:38:52;;;;;;;6.80;1.90;;;;;;;;;;5091926;28;20455;-48
2022/03/18 08:41:19;;;;;;;7.05;2.15;;;;;;;;;;5089232;28;20032;-48
2022/03/18 08:43:45;;;;;;;8.88;2.33;;;;;;;;;;5086769;28;20397;-51
2022/03/18 08:46:10;;;;;;;11.25;2.55;;;;;;;;;;5091216;28;20039;-52
2022/03/18 08:48:37;;;;;;;8.60;2.13;;;;;;;;;;5094354;28;20150;-49
2022/03/18 08:51:03;;;;;;;9.20;2.28;;;;;;;;;;5092962;28;20102;-48
2022/03/18 08:53:29;;;;;;;11.25;2.35;;;;;;;;;;5094960;28;20127;-49
2022/03/18 08:55:56;;;;;;;8.25;2.20;;;;;;;;;;5091240;28;20119;-52
2022/03/18 08:58:22;;;;;;;14.52;2.10;;;;;;;;;;5090334;28;20015;-50
2022/03/18 09:00:48;;;;;;;14.60;2.15;;;;;;;;;;5093227;28;20027;-48
2022/03/18 09:03:14;;;;;;;11.10;2.58;;;;;;;;;;5091249;28;20059;-48
2022/03/18 09:05:42;;;;;;;8.43;1.80;;;;;;;;;;5091193;28;20038;-48
2022/03/18 09:08:08;;;;;;;6.25;1.90;;;;;;;;;;5088087;28;20021;-51
2022/03/18 09:10:34;;;;;;;8.85;2.10;;;;;;;;;;5087565;28;20060;-48
2022/03/18 09:13:00;;;;;;;11.60;1.85;;;;;;;;;;5087102;28;20518;-48
2022/03/18 09:15:29;;;;;;;7.15;1.92;;;;;;;;;;5093739;28;20028;-46
2022/03/18 09:17:55;;;;;;;11.88;2.47;;;;;;;;;;5087223;28;20063;-47
2022/03/18 09:20:21;;;;;;;4.85;1.50;;;;;;;;;;5089550;28;20057;-50
2022/03/18 09:22:47;;;;;;;14.07;1.98;;;;;;;;;;5093315;28;20099;-47
2022/03/18 09:25:14;;;;;;;7.72;1.80;;;;;;;;;;5091867;28;20024;-48
2022/03/18 09:27:40;;;;;;;7.55;2.05;;;;;;;;;;5093916;28;20030;-48
2022/03/18 09:30:07;;;;;;;8.32;1.73;;;;;;;;;;5088340;28;20106;-46
2022/03/18 09:32:33;;;;;;;7.97;1.92;;;;;;;;;;5093023;28;20024;-46
2022/03/18 09:34:59;;;;;;;7.03;1.70;;;;;;;;;;5087660;28;20384;-51
2022/03/18 09:37:25;;;;;;;7.65;1.50;;;;;;;;;;5091614;28;20027;-47
2022/03/18 09:39:51;;;;;;;6.18;1.70;;;;;;;;;;5093651;28;20464;-47
2022/03/18 09:42:17;;;;;;;12.48;1.80;;;;;;;;;;5089229;28;20032;-47
2022/03/18 09:44:43;;;;;;;9.82;1.90;;;;;;;;;;5090367;28;20016;-49
2022/03/18 09:47:09;;;;;;;9.68;2.20;;;;;;;;;;5088656;28;20456;-46
2022/03/18 09:49:36;;;;;;;8.60;1.50;;;;;;;;;;5087042;28;20066;-51
2022/03/18 09:52:02;;;;;;;9.15;1.48;;;;;;;;;;5091473;28;20047;-47
2022/03/18 09:54:29;;;;;;;5.82;1.67;;;;;;;;;;5093309;28;20472;-52
2022/03/18 09:56:55;;;;;;;8.60;1.95;;;;;;;;;;5093214;28;20028;-49
2022/03/18 09:59:26;;;;;;;8.05;1.50;;;;;;;;;;5093079;28;20472;-48
2022/03/18 10:02:12;;;;;;;3.20;1.05;;;;;;;;;;5087650;28;20038;-52
2022/03/18 10:04:56;;;;;;;6.72;1.85;;;;;;;;;;5063537;28;20032;-49
2022/03/18 10:07:23;;;;;;;4.82;1.45;;;;;;;;;;5065221;28;20054;-51
2022/03/18 10:09:49;;;;;;;8.45;1.60;;;;;;;;;;5069849;28;20031;-51
2022/03/18 10:12:35;;;;;;;9.85;2.17;;;;;;;;;;5080722;28;20459;-47
2022/03/18 10:15:18;;;;;;;12.55;2.00;;;;;;;;;;5094127;28;20028;-47
2022/03/18 10:17:45;;;;;;;7.70;1.60;;;;;;;;;;5072108;28;20385;-47
2022/03/18 10:20:32;;;;;;;5.38;1.63;;;;;;;;;;5082694;28;20024;-47
2022/03/18 10:23:02;;;;;;;6.30;1.35;;;;;;;;;;5091064;28;20381;-49
2022/03/18 10:25:35;;;;;;;7.70;1.80;;;;;;;;;;5077889;28;20101;-48
2022/03/18 10:28:01;;;;;;;;;;;;;;;;;;5102046;28;20027;-47
2022/03/18 10:30:28;;;;;;;4.60;1.25;;;;;;;;;;5095859;28;19947;-50
2022/03/18 10:32:54;;;;;;;7.22;1.55;;;;;;;;;;5090396;28;20491;-47
2022/03/18 10:38:14;;;;;;;9.32;1.30;;;;;;;;;;5086010;28;20044;-53
2022/03/18 10:40:40;;;;;;;3.25;1.10;;;;;;;;;;5086680;28;20028;-48
2022/03/18 10:43:08;;;;;;;3.47;1.35;;;;;;;;;;5089844;28;20027;-49
2022/03/18 10:45:35;;;;;;;7.07;1.40;;;;;;;;;;5084907;28;20055;-49
2022/03/18 10:48:11;;;;;;;8.43;1.17;;;;;;;;;;5093886;28;20357;-48
2022/03/18 10:50:38;;;;;;;6.13;1.23;;;;;;;;;;5086239;28;20106;-47
2022/03/18 10:53:06;;;;;;;3.90;1.27;;;;;;;;;;5077786;28;20052;-50
2022/03/18 10:55:37;;;;;;;7.78;1.40;;;;;;;;;;5092554;28;20553;-51
2022/03/18 10:58:08;;;;;;;7.93;1.30;;;;;;;;;;5091085;28;20077;-47
2022/03/18 11:00:35;;;;;;;4.82;1.08;;;;;;;;;;5079954;28;20120;-47
2022/03/18 11:03:03;;;;;;;6.13;1.33;;;;;;;;;;5075245;28;20028;-50
2022/03/18 11:05:32;;;;;;;7.88;1.30;;;;;;;;;;5082346;28;20036;-47
2022/03/18 11:08:00;;;;;;;4.30;1.27;;;;;;;;;;5084845;28;20084;-48
2022/03/18 11:13:13;;;;;;;2.92;1.02;;;;;;;;;;5086120;28;20077;-52
2022/03/18 11:15:42;;;;;;;6.15;1.10;;;;;;;;;;5093030;28;20031;-51
2022/03/18 11:18:10;;;;;;;4.00;0.90;;;;;;;;;;5082678;28;20027;-51
2022/03/18 11:20:42;;;;;;;2.65;0.93;;;;;;;;;;5078740;28;20029;-46
2022/03/18 11:23:12;;;;;;;7.10;0.97;;;;;;;;;;5084776;28;20074;-48
2022/03/18 11:25:41;;;;;;;2.88;0.90;;;;;;;;;;5076894;28;20032;-47
2022/03/18 11:28:07;;;;;;;3.60;1.02;;;;;;;;;;5091720;28;20032;-51
2022/03/18 11:30:38;;;;;;;4.60;1.10;;;;;;;;;;5088090;28;20032;-47
2022/03/18 11:33:06;;;;;;;8.13;1.00;;;;;;;;;;5081856;28;20032;-51
2022/03/18 11:35:52;;;;;;;6.43;0.77;;;;;;;;;;5087221;28;20398;-51
2022/03/18 11:38:22;;;;;;;4.65;0.90;;;;;;;;;;5077398;28;20036;-47
2022/03/18 11:40:51;;;;;;;4.38;0.77;;;;;;;;;;5086857;28;20039;-48
2022/03/18 11:43:29;;;;;;;4.35;0.90;;;;;;;;;;5085072;28;20032;-46
2022/03/18 11:46:17;;;;;;;3.63;0.70;;;;;;;;;;5079318;28;20029;-46
2022/03/18 11:48:46;;;;;;;2.35;0.85;;;;;;;;;;5090479;28;20020;-48
2022/03/18 11:51:25;;;;;;;6.07;0.55;;;;;;;;;;5083824;28;20055;-52
2022/03/18 11:53:53;;;;;;;3.80;1.25;;;;;;;;;;5072871;28;20047;-53
2022/03/18 11:56:20;;;;;;;3.78;0.88;;;;;;;;;;5081361;28;20117;-48
2022/03/18 11:58:46;;;;;;;3.17;0.77;;;;;;;;;;5083467;28;20012;-48
2022/03/18 12:01:31;;;;;;;2.53;0.80;;;;;;;;;;5086966;28;20425;-50
2022/03/18 12:03:57;;;;;;;2.38;0.80;;;;;;;;;;5080390;28;20115;-52
2022/03/18 12:06:23;;;;;;;6.63;0.88;;;;;;;;;;5080446;28;20047;-46
2022/03/18 12:08:52;;;;;;;6.97;0.85;;;;;;;;;;5082274;28;20468;-46
2022/03/18 12:11:28;;;;;;;6.03;1.10;;;;;;;;;;5077453;28;20486;-50
2022/03/18 12:13:54;;;;;;;3.80;0.68;;;;;;;;;;5075228;28;20025;-46
2022/03/18 12:16:21;;;;;;;3.50;0.90;;;;;;;;;;5091204;28;20032;-47
2022/03/18 12:18:47;;;;;;;5.15;0.98;;;;;;;;;;5073686;28;20059;-48
2022/03/18 12:21:14;;;;;;;3.15;0.70;;;;;;;;;;5085600;28;20103;-47
2022/03/18 12:23:40;;;;;;;4.22;0.80;;;;;;;;;;5080700;28;20056;-48
2022/03/18 12:26:07;;;;;;;2.97;0.82;;;;;;;;;;5081119;28;20482;-46
2022/03/18 12:28:49;;;;;;;4.55;0.77;;;;;;;;;;5078447;28;20051;-47
2022/03/18 12:31:20;;;;;;;3.95;0.70;;;;;;;;;;5075907;28;20029;-46
2022/03/18 12:33:46;;;;;;;3.10;0.85;;;;;;;;;;5088906;28;20086;-47
2022/03/18 12:36:13;;;;;;;3.47;0.45;;;;;;;;;;5084301;28;20481;-47
2022/03/18 12:38:45;;;;;;;2.17;0.70;;;;;;;;;;5090490;28;20024;-47
2022/03/18 12:41:12;;;;;;;3.60;0.77;;;;;;;;;;5092243;28;20080;-46
2022/03/18 12:43:37;;;;;;;3.08;0.60;;;;;;;;;;5086458;28;20107;-47
2022/03/18 12:46:04;;;;;;;2.83;0.77;;;;;;;;;;5082089;28;20024;-51
2022/03/18 12:48:30;;;;;;;2.72;0.63;;;;;;;;;;5083238;28;20036;-50
2022/03/18 12:50:57;;;;;;;2.90;0.50;;;;;;;;;;5078177;28;20423;-48
2022/03/18 12:53:24;;;;;;;4.68;0.85;;;;;;;;;;5094679;28;20781;-47
2022/03/18 12:55:54;;;;;;;1.52;0.40;;;;;;;;;;5086884;28;20028;-47
2022/03/18 12:58:20;;;;;;;3.47;0.75;;;;;;;;;;5085906;28;20075;-51
2022/03/18 13:00:50;;;;;;;2.20;0.70;;;;;;;;;;5080446;28;20449;-47
2022/03/18 13:03:20;;;;;;;3.60;0.40;;;;;;;;;;5084048;28;20502;-47
2022/03/18 13:05:49;;;;;;;3.08;0.47;;;;;;;;;;5084009;28;20108;-48
2022/03/18 13:08:16;;;;;;;3.15;0.40;;;;;;;;;;5078585;28;20439;-48
2022/03/18 13:10:43;;;;;;;3.38;0.60;;;;;;;;;;5088840;28;20380;-50
2022/03/18 13:13:13;;;;;;;2.63;0.43;;;;;;;;;;5072739;28;20023;-51
2022/03/18 13:15:40;;;;;;;1.83;0.60;;;;;;;;;;5084957;28;20032;-48
2022/03/18 13:18:14;;;;;;;4.38;0.57;;;;;;;;;;5078926;28;20027;-48
2022/03/18 13:20:40;;;;;;;2.58;0.32;;;;;;;;;;5074239;28;20400;-48
2022/03/18 13:23:07;;;;;;;1.85;0.73;;;;;;;;;;5076101;28;20507;-48
2022/03/18 13:25:34;;;;;;;1.48;0.43;;;;;;;;;;5077536;28;20039;-47
2022/03/18 13:28:01;;;;;;;2.60;0.50;;;;;;;;;;5072266;28;20035;-47
2022/03/18 13:33:11;;;;;;;2.53;0.40;;;;;;;;;;5081931;28;20039;-47
2022/03/18 13:35:56;;;;;;;3.03;0.40;;;;;;;;;;5072358;28;20442;-52
2022/03/18 13:38:23;;;;;;;1.73;0.52;;;;;;;;;;5074091;28;20043;-48
2022/03/18 13:40:58;;;;;;;1.88;0.38;;;;;;;;;;5079346;28;20024;-49
2022/03/18 13:43:25;;;;;;;1.75;0.40;;;;;;;;;;5077520;28;20517;-51
2022/03/18 13:45:51;;;;;;;2.20;0.25;;;;;;;;;;5080185;28;20043;-48
2022/03/18 13:48:27;;;;;;;1.30;0.20;;;;;;;;;;5090083;28;20036;-49
2022/03/18 13:50:54;;;;;;;2.55;0.47;;;;;;;;;;5084990;28;20055;-49
2022/03/18 13:53:24;;;;;;;2.13;0.63;;;;;;;;;;5082719;28;20043;-50
2022/03/18 13:55:51;;;;;;;2.78;0.85;;;;;;;;;;5081244;28;20147;-48
2022/03/18 13:58:27;;;;;;;1.48;0.32;;;;;;;;;;5085354;28;20032;-47
2022/03/18 14:00:54;;;;;;;2.58;0.28;;;;;;;;;;5086205;28;20032;-50
2022/03/18 14:03:29;;;;;;;1.98;0.32;;;;;;;;;;5082384;28;20042;-47
2022/03/18 14:06:00;;;;;;;0.45;0.20;;;;;;;;;;5076832;28;20035;-53
2022/03/18 14:08:27;;;;;;;2.42;0.45;;;;;;;;;;5079931;28;20020;-48
2022/03/18 14:10:57;;;;;;;0.98;0.47;;;;;;;;;;5086406;28;20077;-49
2022/03/18 14:13:26;;;;;;;2.50;0.40;;;;;;;;;;5081889;28;20468;-47
2022/03/18 14:15:52;;;;;;;1.63;0.43;;;;;;;;;;5077502;28;20815;-49
2022/03/18 14:18:18;;;;;;;1.42;0.40;;;;;;;;;;5070197;28;20029;-47
2022/03/18 14:20:44;;;;;;;0.95;0.17;;;;;;;;;;5081649;28;20472;-47
2022/03/18 14:23:24;;;;;;;1.75;0.30;;;;;;;;;;5077820;28;20029;-47
2022/03/18 14:25:54;;;;;;;1.65;0.20;;;;;;;;;;5083485;28;20032;-50
2022/03/18 14:28:21;;;;;;;1.20;0.30;;;;;;;;;;5079100;28;20036;-47
2022/03/18 14:30:47;;;;;;;0.93;0.20;;;;;;;;;;5078667;28;20750;-47
2022/03/18 14:33:14;;;;;;;1.83;0.35;;;;;;;;;;5086453;28;20042;-49
2022/03/18 14:35:40;;;;;;;0.55;0.10;;;;;;;;;;5084893;28;20020;-52
2022/03/18 14:38:07;;;;;;;2.47;0.63;;;;;;;;;;5081555;28;20043;-53
2022/03/18 14:40:34;;;;;;;2.28;0.22;;;;;;;;;;5088174;28;20123;-49
2022/03/18 14:43:00;;;;;;;1.35;0.50;;;;;;;;;;5085786;28;20036;-49
2022/03/18 14:45:26;;;;;;;1.13;0.38;;;;;;;;;;5085762;28;20036;-47
2022/03/18 14:47:52;;;;;;;2.95;0.60;;;;;;;;;;5084449;28;20024;-51
2022/03/18 14:50:18;;;;;;;3.03;0.47;;;;;;;;;;5082547;28;20464;-49
2022/03/18 14:52:44;;;;;;;1.70;0.40;;;;;;;;;;5085317;28;20521;-47
2022/03/18 14:57:55;;;;;;;6.57;0.80;;;;;;;;;;5084960;28;20372;-47
2022/03/18 15:00:22;;;;;;;3.10;0.50;;;;;;;;;;5085952;28;20472;-50
2022/03/18 15:02:48;;;;;;;2.65;0.35;;;;;;;;;;5081282;28;20035;-47
2022/03/18 15:05:15;;;;;;;1.98;0.30;;;;;;;;;;5087439;28;20032;-47